createdAt,value
2018-06-27T00:01:12.735Z,7.87
2018-06-27T00:03:41.812Z,6.87
2018-06-27T00:06:10.450Z,6.90
2018-06-27T00:08:39.156Z,7.27
2018-06-27T00:11:07.741Z,9.50
2018-06-27T00:13:36.461Z,7.63
2018-06-27T00:16:05.185Z,6.87
2018-06-27T00:18:33.893Z,7.37
2018-06-27T00:21:02.588Z,7.00
2018-06-27T00:23:31.271Z,6.07
2018-06-27T00:25:59.948Z,6.80
2018-06-27T00:28:28.611Z,7.63
2018-06-27T00:30:57.229Z,6.97
2018-06-27T00:33:25.936Z,6.20
2018-06-27T00:35:54.586Z,6.70
2018-06-27T00:38:23.268Z,6.67
2018-06-27T00:40:51.970Z,7.60
2018-06-27T00:43:20.646Z,11.57
2018-06-27T00:45:49.298Z,6.00
2018-06-27T00:48:17.978Z,6.90
2018-06-27T00:50:46.589Z,7.43
2018-06-27T00:53:15.250Z,6.53
2018-06-27T00:55:43.960Z,6.93
2018-06-27T00:58:12.657Z,7.10
2018-06-27T01:00:41.329Z,6.10
2018-06-27T01:03:10.065Z,6.20
2018-06-27T01:05:38.778Z,6.77
2018-06-27T01:08:07.457Z,5.90
2018-06-27T01:10:36.157Z,6.60
2018-06-27T01:13:04.833Z,6.73
2018-06-27T01:15:43.798Z,6.83
2018-06-27T01:18:12.461Z,6.30
2018-06-27T01:20:41.155Z,7.20
2018-06-27T01:23:09.781Z,6.30
2018-06-27T01:25:38.470Z,6.50
2018-06-27T01:28:07.091Z,7.63
2018-06-27T01:30:35.690Z,7.03
2018-06-27T01:33:04.302Z,7.27
2018-06-27T01:35:35.889Z,6.93
2018-06-27T01:38:04.500Z,7.53
2018-06-27T01:40:33.062Z,7.50
2018-06-27T01:43:01.655Z,6.70
2018-06-27T01:45:30.263Z,7.10
2018-06-27T01:47:58.884Z,6.70
2018-06-27T01:50:27.485Z,7.27
2018-06-27T01:52:56.193Z,7.83
2018-06-27T01:55:24.979Z,7.10
2018-06-27T01:57:53.617Z,6.90
2018-06-27T02:00:22.260Z,7.23
2018-06-27T02:02:50.857Z,9.87
2018-06-27T02:05:19.557Z,7.50
2018-06-27T02:07:48.569Z,7.60
2018-06-27T02:10:17.137Z,8.47
2018-06-27T02:12:45.837Z,7.57
2018-06-27T02:15:14.439Z,7.30
2018-06-27T02:17:43.054Z,8.10
2018-06-27T02:20:11.741Z,7.50
2018-06-27T02:22:40.401Z,7.97
2018-06-27T02:25:09.062Z,8.73
2018-06-27T02:27:37.765Z,7.53
2018-06-27T02:30:06.447Z,6.83
2018-06-27T02:32:35.144Z,8.47
2018-06-27T02:35:03.866Z,8.73
2018-06-27T02:37:32.514Z,8.17
2018-06-27T02:40:01.146Z,8.30
2018-06-27T02:42:29.759Z,7.53
2018-06-27T02:44:58.330Z,7.70
2018-06-27T02:47:27.020Z,7.53
2018-06-27T02:49:55.832Z,9.60
2018-06-27T02:52:24.266Z,9.33
2018-06-27T02:54:52.484Z,12.20
2018-06-27T02:57:21.193Z,7.67
2018-06-27T02:59:49.887Z,12.83
2018-06-27T03:02:18.504Z,7.13
2018-06-27T03:04:47.422Z,6.97
2018-06-27T03:07:16.009Z,7.40
2018-06-27T03:09:44.640Z,7.20
2018-06-27T03:12:13.277Z,7.17
2018-06-27T03:14:41.833Z,8.13
2018-06-27T03:17:10.475Z,7.03
2018-06-27T03:19:39.195Z,9.13
2018-06-27T03:22:07.822Z,7.00
2018-06-27T03:24:36.506Z,6.67
2018-06-27T03:27:05.403Z,6.80
2018-06-27T03:29:33.991Z,7.07
2018-06-27T03:32:02.587Z,7.27
2018-06-27T03:34:31.203Z,8.03
2018-06-27T03:36:59.844Z,7.83
2018-06-27T03:39:28.459Z,7.90
2018-06-27T03:41:57.149Z,7.50
2018-06-27T03:44:25.419Z,7.97
2018-06-27T03:46:54.041Z,7.93
2018-06-27T03:49:22.686Z,8.67
2018-06-27T03:51:51.302Z,6.87
2018-06-27T03:54:19.955Z,7.30
2018-06-27T03:56:48.602Z,8.17
2018-06-27T03:59:17.227Z,6.80
2018-06-27T04:01:45.769Z,11.00
2018-06-27T04:04:14.399Z,8.40
2018-06-27T04:06:42.989Z,8.33
2018-06-27T04:09:12.423Z,9.07
2018-06-27T04:11:42.022Z,9.50
2018-06-27T04:14:10.603Z,9.97
2018-06-27T04:16:39.265Z,8.23
2018-06-27T04:19:07.967Z,8.20
2018-06-27T04:21:36.578Z,8.83
2018-06-27T04:24:05.249Z,8.23
2018-06-27T04:26:33.806Z,8.40
2018-06-27T04:29:02.387Z,7.93
2018-06-27T04:31:30.984Z,7.90
2018-06-27T04:33:59.548Z,10.93
2018-06-27T04:36:28.065Z,8.13
2018-06-27T04:38:56.696Z,9.60
2018-06-27T04:41:25.340Z,7.00
2018-06-27T04:44:12.353Z,7.50
2018-06-27T04:46:40.909Z,7.87
2018-06-27T04:49:09.517Z,7.90
2018-06-27T04:51:38.319Z,10.83
2018-06-27T04:54:06.926Z,9.60
2018-06-27T04:56:35.597Z,13.73
2018-06-27T04:59:04.213Z,15.77
2018-06-27T05:01:32.871Z,10.40
2018-06-27T05:04:01.806Z,8.77
2018-06-27T05:06:30.425Z,9.93
2018-06-27T05:08:58.978Z,8.97
2018-06-27T05:11:27.638Z,10.07
2018-06-27T05:13:56.289Z,10.63
2018-06-27T05:16:24.914Z,10.00
2018-06-27T05:18:53.701Z,9.57
2018-06-27T05:21:22.324Z,10.13
2018-06-27T05:23:50.973Z,9.67
2018-06-27T05:26:19.881Z,10.67
2018-06-27T05:28:48.502Z,9.93
2018-06-27T05:31:17.141Z,10.93
2018-06-27T05:33:45.773Z,11.50
2018-06-27T05:36:14.555Z,10.73
2018-06-27T05:38:43.331Z,9.47
2018-06-27T05:41:12.010Z,14.57
2018-06-27T05:43:40.640Z,10.07
2018-06-27T05:46:09.226Z,9.10
2018-06-27T05:48:39.019Z,9.83
2018-06-27T05:51:08.037Z,11.13
2018-06-27T05:53:36.961Z,11.80
2018-06-27T05:56:05.961Z,9.90
2018-06-27T05:58:34.212Z,9.77
2018-06-27T06:01:02.860Z,10.40
2018-06-27T06:03:31.881Z,12.47
2018-06-27T06:06:00.546Z,11.13
2018-06-27T06:08:29.169Z,10.63
2018-06-27T06:10:57.809Z,11.37
2018-06-27T06:13:26.473Z,10.73
2018-06-27T06:15:55.090Z,15.27
2018-06-27T06:18:23.736Z,11.17
2018-06-27T06:20:52.365Z,16.40
2018-06-27T06:23:20.979Z,12.63
2018-06-27T06:25:49.610Z,10.70
2018-06-27T06:28:18.297Z,10.77
2018-06-27T06:30:46.935Z,12.43
2018-06-27T06:33:15.115Z,10.00
2018-06-27T06:35:43.745Z,10.47
2018-06-27T06:38:12.361Z,10.50
2018-06-27T06:40:41.006Z,9.97
2018-06-27T06:43:09.678Z,9.27
2018-06-27T06:45:38.330Z,11.33
2018-06-27T06:48:06.953Z,10.00
2018-06-27T06:50:35.597Z,10.40
2018-06-27T06:53:04.215Z,8.87
2018-06-27T06:55:32.941Z,8.73
2018-06-27T06:58:01.553Z,12.07
2018-06-27T07:00:30.168Z,9.73
2018-06-27T07:02:58.716Z,8.10
2018-06-27T07:05:27.347Z,7.53
2018-06-27T07:07:56.034Z,9.70
2018-06-27T07:10:24.709Z,9.93
2018-06-27T07:12:53.317Z,9.37
2018-06-27T07:15:21.970Z,6.93
2018-06-27T07:17:50.696Z,6.77
2018-06-27T07:20:19.309Z,6.67
2018-06-27T07:22:47.928Z,8.60
2018-06-27T07:25:16.585Z,6.00
2018-06-27T07:27:45.234Z,7.30
2018-06-27T07:30:13.849Z,5.10
2018-06-27T07:32:42.433Z,5.30
2018-06-27T07:35:11.054Z,5.17
2018-06-27T07:37:39.611Z,5.73
2018-06-27T07:40:08.513Z,5.13
2018-06-27T07:42:37.209Z,5.00
2018-06-27T07:45:05.809Z,5.13
2018-06-27T07:47:34.373Z,5.10
2018-06-27T07:50:03.052Z,6.03
2018-06-27T07:52:31.689Z,5.47
2018-06-27T07:55:00.683Z,6.07
2018-06-27T07:57:29.298Z,4.90
2018-06-27T07:59:57.972Z,5.80
2018-06-27T08:02:26.550Z,3.83
2018-06-27T08:04:55.172Z,4.27
2018-06-27T08:07:24.122Z,3.97
2018-06-27T08:09:52.762Z,5.23
2018-06-27T08:12:21.563Z,2.53
2018-06-27T08:14:50.222Z,4.77
2018-06-27T08:17:18.863Z,2.63
2018-06-27T08:19:47.629Z,2.97
2018-06-27T08:22:16.258Z,3.83
2018-06-27T08:24:44.967Z,3.40
2018-06-27T08:27:13.622Z,4.60
2018-06-27T08:29:42.298Z,5.00
2018-06-27T08:32:10.857Z,3.33
2018-06-27T08:34:39.488Z,3.13
2018-06-27T08:37:08.174Z,3.30
2018-06-27T08:39:37.713Z,2.97
2018-06-27T08:42:06.437Z,5.97
2018-06-27T08:44:35.082Z,3.27
2018-06-27T08:47:03.729Z,2.97
2018-06-27T08:49:32.353Z,3.87
2018-06-27T08:52:00.986Z,2.60
2018-06-27T08:54:29.553Z,2.97
2018-06-27T08:56:58.238Z,2.70
2018-06-27T08:59:26.938Z,3.10
2018-06-27T09:01:55.569Z,3.10
2018-06-27T09:04:24.117Z,3.13
2018-06-27T09:06:52.741Z,3.20
2018-06-27T09:09:21.381Z,3.37
2018-06-27T09:11:49.964Z,3.40
2018-06-27T09:14:18.598Z,3.47
2018-06-27T09:16:47.201Z,3.17
2018-06-27T09:19:15.806Z,3.70
2018-06-27T09:21:44.477Z,3.80
2018-06-27T09:24:13.069Z,3.10
2018-06-27T09:26:41.628Z,3.23
2018-06-27T09:29:10.181Z,3.33
2018-06-27T09:31:39.387Z,3.90
2018-06-27T09:34:08.308Z,3.87
2018-06-27T09:36:36.911Z,4.27
2018-06-27T09:39:08.446Z,4.13
2018-06-27T09:41:37.301Z,5.17
2018-06-27T09:44:12.494Z,3.63
2018-06-27T09:46:41.787Z,3.83
2018-06-27T09:49:10.562Z,3.03
2018-06-27T09:51:39.134Z,4.70
2018-06-27T09:54:07.737Z,3.70
2018-06-27T09:56:36.738Z,3.10
2018-06-27T09:59:05.304Z,4.53
2018-06-27T10:01:33.867Z,3.80
2018-06-27T10:04:02.740Z,3.13
2018-06-27T10:06:31.394Z,3.77
2018-06-27T10:08:59.621Z,3.13
2018-06-27T10:11:28.477Z,5.33
2018-06-27T10:13:57.084Z,12.07
2018-06-27T10:16:26.200Z,3.00
2018-06-27T10:18:54.863Z,2.47
2018-06-27T10:21:23.513Z,3.20
2018-06-27T10:23:52.098Z,2.80
2018-06-27T10:26:20.823Z,2.50
2018-06-27T10:28:49.438Z,7.83
2018-06-27T10:31:17.990Z,3.67
2018-06-27T10:33:46.531Z,3.47
2018-06-27T10:36:15.256Z,3.00
2018-06-27T10:38:43.897Z,3.20
2018-06-27T10:41:12.523Z,3.00
2018-06-27T10:43:41.197Z,4.60
2018-06-27T10:46:09.858Z,2.77
2018-06-27T10:48:38.558Z,2.60
2018-06-27T10:51:07.643Z,3.30
2018-06-27T10:53:36.374Z,2.63
2018-06-27T10:56:05.185Z,2.70
2018-06-27T10:58:33.829Z,2.60
2018-06-27T11:01:02.626Z,2.37
2018-06-27T11:03:31.183Z,2.00
2018-06-27T11:05:59.774Z,4.97
2018-06-27T11:08:28.365Z,2.10
2018-06-27T11:10:56.930Z,2.10
2018-06-27T11:13:25.595Z,2.93
2018-06-27T11:15:54.249Z,4.37
2018-06-27T11:18:22.946Z,2.40
2018-06-27T11:20:51.951Z,2.10
2018-06-27T11:23:20.945Z,2.40
2018-06-27T11:25:50.542Z,2.30
2018-06-27T11:28:19.165Z,2.43
2018-06-27T11:30:50.428Z,3.77
2018-06-27T11:33:18.972Z,5.43
2018-06-27T11:35:47.777Z,2.20
2018-06-27T11:38:16.803Z,2.10
2018-06-27T11:40:45.423Z,2.17
2018-06-27T11:43:14.175Z,8.03
2018-06-27T11:45:42.874Z,2.10
2018-06-27T11:48:11.838Z,5.90
2018-06-27T11:50:40.429Z,2.00
2018-06-27T11:53:09.018Z,4.93
2018-06-27T11:55:37.905Z,1.90
2018-06-27T11:58:07.342Z,2.03
2018-06-27T12:00:37.713Z,1.87
2018-06-27T12:03:06.884Z,1.60
2018-06-27T12:05:35.758Z,1.80
2018-06-27T12:08:05.427Z,1.73
2018-06-27T12:10:34.882Z,1.70
2018-06-27T12:13:03.938Z,4.37
2018-06-27T12:15:32.633Z,2.13
2018-06-27T12:18:01.278Z,2.47
2018-06-27T12:20:29.954Z,1.80
2018-06-27T12:22:58.655Z,2.30
2018-06-27T12:25:27.400Z,2.37
2018-06-27T12:27:56.478Z,2.17
2018-06-27T12:30:25.917Z,2.10
2018-06-27T12:32:54.975Z,2.37
2018-06-27T12:35:24.206Z,3.40
2018-06-27T12:37:54.678Z,3.00
2018-06-27T12:40:23.397Z,2.53
2018-06-27T12:42:52.113Z,4.90
2018-06-27T12:45:20.763Z,2.27
2018-06-27T12:47:49.469Z,2.40
2018-06-27T12:50:18.273Z,3.20
2018-06-27T12:52:47.040Z,2.83
2018-06-27T12:55:16.315Z,1.60
2018-06-27T12:57:44.937Z,3.63
2018-06-27T13:00:13.645Z,1.67
2018-06-27T13:02:42.253Z,1.70
2018-06-27T13:05:11.265Z,5.90
2018-06-27T13:07:39.786Z,1.60
2018-06-27T13:10:09.602Z,3.40
2018-06-27T13:12:39.093Z,1.50
2018-06-27T13:15:08.139Z,4.13
2018-06-27T13:17:36.811Z,2.63
2018-06-27T13:20:06.061Z,1.33
2018-06-27T13:22:34.889Z,1.67
2018-06-27T13:25:03.882Z,2.67
2018-06-27T13:27:32.815Z,1.23
2018-06-27T13:30:01.489Z,1.40
2018-06-27T13:32:30.119Z,1.43
2018-06-27T13:34:58.629Z,2.13
2018-06-27T13:37:27.024Z,1.60
2018-06-27T13:39:55.469Z,2.43
2018-06-27T13:42:23.869Z,1.30
2018-06-27T13:44:52.289Z,1.70
2018-06-27T13:47:20.710Z,1.77
2018-06-27T13:49:49.545Z,1.30
2018-06-27T13:52:18.162Z,2.23
2018-06-27T13:54:51.974Z,2.80
2018-06-27T13:57:20.554Z,3.43
2018-06-27T13:59:49.181Z,1.10
2018-06-27T14:02:17.789Z,12.70
2018-06-27T14:04:46.366Z,1.40
2018-06-27T14:07:14.941Z,1.37
2018-06-27T14:09:43.509Z,2.07
2018-06-27T14:12:12.126Z,1.40
2018-06-27T14:14:40.975Z,1.30
2018-06-27T14:17:09.614Z,3.17
2018-06-27T14:19:38.209Z,3.43
2018-06-27T14:22:07.277Z,1.53
2018-06-27T14:24:36.455Z,1.53
2018-06-27T14:27:05.138Z,2.13
2018-06-27T14:29:33.759Z,1.43
2018-06-27T14:32:02.463Z,1.67
2018-06-27T14:34:31.064Z,1.40
2018-06-27T14:36:59.702Z,1.50
2018-06-27T14:39:28.323Z,1.83
2018-06-27T14:41:56.942Z,1.40
2018-06-27T14:44:25.466Z,2.80
2018-06-27T14:46:54.030Z,3.53
2018-06-27T14:49:22.680Z,1.20
2018-06-27T14:51:51.265Z,2.17
2018-06-27T14:54:19.828Z,1.47
2018-06-27T14:56:48.427Z,1.47
2018-06-27T15:02:14.437Z,1.63
2018-06-27T15:04:43.122Z,4.17
2018-06-27T15:07:11.798Z,5.93
2018-06-27T15:09:40.442Z,5.63
2018-06-27T15:12:09.079Z,1.20
2018-06-27T15:14:37.725Z,1.20
2018-06-27T15:17:06.393Z,5.70
2018-06-27T15:19:35.021Z,1.00
2018-06-27T15:22:03.741Z,2.07
2018-06-27T15:24:32.404Z,1.20
2018-06-27T15:27:00.997Z,3.27
2018-06-27T15:29:29.641Z,1.10
2018-06-27T15:31:58.250Z,1.43
2018-06-27T15:34:26.855Z,3.80
2018-06-27T15:36:55.453Z,3.27
2018-06-27T15:39:24.054Z,1.23
2018-06-27T15:41:52.701Z,1.00
2018-06-27T15:44:21.299Z,1.67
2018-06-27T15:46:49.937Z,5.20
2018-06-27T15:49:18.621Z,0.93
2018-06-27T15:51:47.334Z,1.20
2018-06-27T15:54:15.997Z,1.20
2018-06-27T15:56:44.645Z,1.30
2018-06-27T15:59:13.276Z,1.00
2018-06-27T16:01:41.985Z,2.00
2018-06-27T16:04:10.656Z,3.70
2018-06-27T16:06:39.398Z,1.47
2018-06-27T16:09:09.145Z,1.50
2018-06-27T16:11:37.847Z,2.53
2018-06-27T16:14:06.548Z,3.20
2018-06-27T16:16:35.198Z,1.00
2018-06-27T16:19:03.946Z,3.77
2018-06-27T16:21:32.497Z,8.70
2018-06-27T16:24:01.115Z,1.93
2018-06-27T16:26:29.748Z,1.60
2018-06-27T16:28:59.839Z,1.60
2018-06-27T16:31:28.607Z,2.00
2018-06-27T16:33:58.171Z,1.00
2018-06-27T16:36:26.787Z,0.93
2018-06-27T16:38:55.823Z,1.00
2018-06-27T16:41:24.453Z,1.00
2018-06-27T16:43:53.162Z,1.33
2018-06-27T16:46:28.453Z,1.20
2018-06-27T16:48:57.013Z,1.00
2018-06-27T16:51:25.769Z,0.90
2018-06-27T16:54:02.488Z,1.10
2018-06-27T16:56:31.222Z,0.90
2018-06-27T16:59:00.174Z,3.03
2018-06-27T17:01:29.388Z,2.00
2018-06-27T17:03:57.738Z,1.00
2018-06-27T17:06:27.137Z,4.17
2018-06-27T17:08:55.857Z,3.30
2018-06-27T17:11:24.425Z,1.00
2018-06-27T17:13:57.813Z,1.60
2018-06-27T17:16:26.610Z,2.37
2018-06-27T17:18:55.383Z,1.00
2018-06-27T17:21:23.969Z,1.03
2018-06-27T17:23:53.001Z,0.83
2018-06-27T17:26:21.593Z,1.30
2018-06-27T17:28:50.521Z,2.00
2018-06-27T17:31:19.695Z,1.07
2018-06-27T17:33:48.626Z,1.17
2018-06-27T17:36:17.282Z,1.33
2018-06-27T17:38:46.534Z,1.53
2018-06-27T17:41:15.462Z,1.10
2018-06-27T17:43:44.369Z,1.70
2018-06-27T17:46:13.566Z,1.10
2018-06-27T17:48:42.403Z,1.30
2018-06-27T17:51:11.035Z,1.43
2018-06-27T17:53:39.887Z,2.53
2018-06-27T17:56:08.569Z,0.97
2018-06-27T17:58:37.214Z,3.23
2018-06-27T18:01:05.902Z,1.27
2018-06-27T18:03:34.629Z,1.77
2018-06-27T18:06:03.302Z,1.10
2018-06-27T18:08:31.921Z,1.03
2018-06-27T18:11:01.015Z,2.57
2018-06-27T18:13:30.090Z,1.63
2018-06-27T18:15:58.856Z,2.83
2018-06-27T18:18:27.697Z,1.70
2018-06-27T18:20:56.347Z,1.00
2018-06-27T18:23:25.031Z,1.00
2018-06-27T18:25:55.243Z,1.43
2018-06-27T18:28:24.240Z,1.13
2018-06-27T18:31:09.150Z,3.33
2018-06-27T18:33:37.795Z,1.00
2018-06-27T18:36:06.513Z,1.37
2018-06-27T18:38:35.163Z,0.93
2018-06-27T18:41:03.829Z,1.50
2018-06-27T18:43:32.457Z,1.90
2018-06-27T18:46:01.133Z,1.30
2018-06-27T18:48:29.819Z,1.13
2018-06-27T18:50:58.503Z,1.23
2018-06-27T18:53:27.137Z,1.77
2018-06-27T18:55:55.883Z,4.83
2018-06-27T18:58:24.550Z,4.63
2018-06-27T19:00:53.257Z,1.07
2018-06-27T19:03:21.907Z,1.20
2018-06-27T19:05:50.570Z,1.10
2018-06-27T19:08:19.173Z,1.20
2018-06-27T19:10:47.841Z,3.03
2018-06-27T19:13:16.470Z,1.20
2018-06-27T19:15:45.172Z,1.50
2018-06-27T19:18:13.813Z,3.90
2018-06-27T19:20:42.578Z,1.70
2018-06-27T19:23:11.138Z,2.60
2018-06-27T19:25:39.882Z,2.63
2018-06-27T19:28:08.582Z,7.60
2018-06-27T19:30:37.282Z,1.70
2018-06-27T19:33:05.890Z,2.03
2018-06-27T19:35:34.541Z,1.43
2018-06-27T19:38:03.186Z,1.73
2018-06-27T19:40:31.806Z,1.90
2018-06-27T19:43:00.471Z,7.27
2018-06-27T19:45:29.186Z,1.60
2018-06-27T19:47:57.733Z,1.20
2018-06-27T19:50:26.433Z,1.57
2018-06-27T19:52:55.092Z,1.50
2018-06-27T19:55:23.817Z,1.60
2018-06-27T19:57:52.361Z,2.50
2018-06-27T20:00:21.077Z,1.47
2018-06-27T20:02:49.743Z,1.40
2018-06-27T20:05:18.503Z,2.33
2018-06-27T20:07:47.250Z,1.80
2018-06-27T20:10:17.934Z,5.33
2018-06-27T20:12:46.505Z,1.73
2018-06-27T20:15:15.226Z,2.47
2018-06-27T20:17:43.846Z,3.53
2018-06-27T20:20:12.506Z,1.53
2018-06-27T20:22:41.147Z,1.93
2018-06-27T20:25:09.770Z,5.23
2018-06-27T20:27:38.490Z,1.67
2018-06-27T20:30:08.364Z,2.70
2018-06-27T20:32:37.041Z,1.77
2018-06-27T20:35:05.877Z,4.50
2018-06-27T20:37:34.584Z,2.63
2018-06-27T20:40:03.375Z,3.00
2018-06-27T20:42:33.737Z,1.90
2018-06-27T20:45:03.264Z,1.97
2018-06-27T20:47:31.874Z,5.20
2018-06-27T20:50:00.569Z,2.67
2018-06-27T20:52:29.277Z,2.80
2018-06-27T20:54:57.929Z,3.73
2018-06-27T20:57:26.694Z,1.83
2018-06-27T20:59:55.328Z,1.73
2018-06-27T21:02:24.566Z,2.10
2018-06-27T21:04:54.278Z,2.70
2018-06-27T21:07:22.894Z,1.97
2018-06-27T21:09:51.497Z,1.90
2018-06-27T21:12:20.142Z,1.97
2018-06-27T21:14:48.848Z,1.80
2018-06-27T21:17:17.537Z,1.70
2018-06-27T21:19:46.190Z,1.93
2018-06-27T21:22:15.018Z,1.83
2018-06-27T21:24:43.715Z,1.63
2018-06-27T21:27:12.288Z,2.00
2018-06-27T21:29:41.009Z,3.03
2018-06-27T21:32:09.636Z,2.20
2018-06-27T21:34:38.333Z,2.47
2018-06-27T21:37:07.008Z,2.17
2018-06-27T21:39:35.623Z,1.80
2018-06-27T21:42:04.238Z,2.20
2018-06-27T21:44:32.873Z,2.67
2018-06-27T21:47:01.491Z,1.70
2018-06-27T21:49:30.146Z,2.63
2018-06-27T21:51:58.742Z,1.43
2018-06-27T21:54:27.394Z,1.80
2018-06-27T21:56:56.374Z,1.80
2018-06-27T21:59:25.042Z,1.77
2018-06-27T22:01:53.735Z,2.93
2018-06-27T22:04:22.433Z,2.83
2018-06-27T22:06:51.128Z,1.40
2018-06-27T22:09:19.801Z,1.40
2018-06-27T22:11:48.445Z,1.67
2018-06-27T22:14:17.039Z,1.43
2018-06-27T22:16:45.702Z,1.47
2018-06-27T22:19:14.326Z,2.10
2018-06-27T22:21:43.089Z,1.47
2018-06-27T22:24:11.685Z,1.27
2018-06-27T22:26:40.374Z,1.57
2018-06-27T22:29:09.113Z,2.57
2018-06-27T22:31:37.729Z,1.53
2018-06-27T22:34:06.301Z,1.50
2018-06-27T22:36:35.018Z,1.30
2018-06-27T22:39:03.901Z,1.57
2018-06-27T22:41:32.583Z,1.53
2018-06-27T22:44:01.169Z,1.43
2018-06-27T22:46:29.725Z,1.90
2018-06-27T22:48:58.345Z,1.60
2018-06-27T22:51:27.133Z,1.53
2018-06-27T22:53:55.783Z,1.80
2018-06-27T22:56:24.358Z,3.43
2018-06-27T22:58:53.108Z,1.60
2018-06-27T23:01:21.751Z,1.63
2018-06-27T23:03:50.439Z,1.70
2018-06-27T23:06:19.105Z,1.40
2018-06-27T23:08:47.758Z,1.70
2018-06-27T23:11:16.453Z,4.00
2018-06-27T23:13:45.086Z,1.80
2018-06-27T23:16:13.774Z,1.90
2018-06-27T23:18:42.420Z,2.13
2018-06-27T23:21:11.166Z,1.83
2018-06-27T23:23:39.794Z,1.90
2018-06-27T23:26:08.435Z,1.87
2018-06-27T23:28:37.057Z,3.73
2018-06-27T23:31:05.674Z,1.93
2018-06-27T23:33:34.315Z,1.70
2018-06-27T23:36:02.939Z,2.57
2018-06-27T23:38:31.534Z,1.40
2018-06-27T23:41:00.239Z,2.33
2018-06-27T23:43:28.885Z,2.17
2018-06-27T23:45:57.566Z,1.70
2018-06-27T23:48:26.169Z,2.13
2018-06-27T23:50:54.801Z,2.17
2018-06-27T23:53:23.394Z,2.13
2018-06-27T23:55:51.995Z,2.97
2018-06-27T23:58:20.774Z,1.60
